Time;durP1;ratioP1;P1;durP2;ratioP2;P2;SDS_P1;SDS_P2;PMS_P1;PMS_P2;Temp;Humidity;BMP_temperature;BMP_pressure;BME280_temperature;BME280_humidity;BME280_pressure;Samples;Min_cycle;Max_cycle;Signal;HPM_P1;HPM_P2
2023/04/16 00:01:07;;;;;;;;;18.33;17.33;;;;;8.76;76.45;102126.03;5141851;27;45470;-67
2023/04/16 00:03:33;;;;;;;;;19.67;16.00;;;;;8.91;75.76;102146.25;5140755;27;45516;-66
2023/04/16 00:05:58;;;;;;;;;18.00;17.33;;;;;8.90;76.51;102136.63;5141346;27;45429;-67
2023/04/16 00:08:23;;;;;;;;;25.67;19.33;;;;;9.03;75.80;102149.00;5141168;27;45456;-67
2023/04/16 00:10:50;;;;;;;;;15.67;14.00;;;;;9.05;75.74;102136.72;5141364;27;45375;-66
2023/04/16 00:13:15;;;;;;;;;22.67;20.67;;;;;9.11;75.74;102140.28;5141081;27;46511;-66
2023/04/16 00:15:41;;;;;;;;;22.33;18.00;;;;;9.10;76.04;102141.13;5140925;27;45389;-67
2023/04/16 00:18:06;;;;;;;;;17.67;17.67;;;;;9.05;75.80;102126.22;5140048;27;45402;-66
2023/04/16 00:20:31;;;;;;;;;19.67;18.33;;;;;9.13;75.76;102130.63;5138726;27;45421;-66
2023/04/16 00:22:57;;;;;;;;;17.33;15.33;;;;;9.23;75.57;102142.97;5138775;27;46063;-66
2023/04/16 00:25:22;;;;;;;;;19.00;15.00;;;;;9.23;75.68;102132.44;5140740;27;45414;-66
2023/04/16 00:27:48;;;;;;;;;22.00;19.00;;;;;9.26;75.29;102132.47;5138926;27;45279;-66
2023/04/16 00:30:13;;;;;;;;;19.33;18.00;;;;;9.21;75.11;102121.94;5140682;27;45393;-66
2023/04/16 00:32:39;;;;;;;;;33.33;32.67;;;;;9.28;75.83;102129.84;5140278;27;46493;-66
2023/04/16 00:35:05;;;;;;;;;19.00;17.00;;;;;9.28;75.67;102132.47;5140890;27;45743;-67
2023/04/16 00:37:30;;;;;;;;;14.33;14.33;;;;;9.23;74.60;102117.53;5141198;27;45293;-67
2023/04/16 00:39:55;;;;;;;;;23.33;16.67;;;;;9.28;75.40;102130.72;5140383;27;45391;-67
2023/04/16 00:42:21;;;;;;;;;18.33;15.00;;;;;9.22;75.99;102128.94;5140297;27;45562;-67
2023/04/16 00:44:46;;;;;;;;;19.67;16.33;;;;;9.14;75.97;102114.00;5140510;27;45462;-67
2023/04/16 00:47:11;;;;;;;;;25.33;19.33;;;;;9.28;75.69;102138.63;5140846;27;45240;-67
2023/04/16 00:49:37;;;;;;;;;21.33;20.00;;;;;9.25;76.26;102133.34;5140752;27;45299;-67
2023/04/16 00:52:03;;;;;;;;;26.67;24.67;;;;;9.23;76.61;102130.69;5119394;27;46027;-67
2023/04/16 00:54:29;;;;;;;;;25.00;20.00;;;;;9.30;76.48;102136.88;5119193;27;45425;-66
2023/04/16 00:56:55;;;;;;;;;28.00;25.67;;;;;9.26;76.20;102137.72;5120101;27;45324;-66
2023/04/16 00:59:20;;;;;;;;;24.33;21.67;;;;;9.30;76.19;102144.75;5120087;27;45432;-66
2023/04/16 01:01:46;;;;;;;;;27.00;24.00;;;;;9.27;76.23;102130.72;5119642;27;46144;-66
2023/04/16 01:04:11;;;;;;;;;25.00;22.00;;;;;9.36;75.89;102150.03;5119566;27;45443;-66
2023/04/16 01:06:36;;;;;;;;;22.00;20.67;;;;;9.31;76.25;102143.88;5118055;27;45407;-66
2023/04/16 01:09:02;;;;;;;;;20.00;17.67;;;;;9.10;76.20;102101.72;5119620;27;45586;-66
2023/04/16 01:11:28;;;;;;;;;21.67;18.00;;;;;9.39;75.70;102150.03;5118439;27;46178;-66
2023/04/16 01:13:53;;;;;;;;;17.33;16.33;;;;;9.33;76.31;102152.66;5118998;27;45240;-66
2023/04/16 01:16:18;;;;;;;;;26.67;20.33;;;;;9.35;76.02;102153.56;5118604;27;45466;-66
2023/04/16 01:18:44;;;;;;;;;19.33;16.33;;;;;9.29;75.90;102137.72;5119651;27;45322;-66
2023/04/16 01:21:09;;;;;;;;;23.00;17.33;;;;;9.29;75.64;102137.72;5119102;27;45479;-67
2023/04/16 01:23:34;;;;;;;;;21.00;17.67;;;;;9.34;76.21;102154.41;5119291;27;45763;-66
2023/04/16 01:26:00;;;;;;;;;16.00;15.00;;;;;9.33;75.51;102152.66;5118220;27;45429;-66
2023/04/16 01:28:25;;;;;;;;;18.00;17.33;;;;;9.29;76.45;102155.25;5119388;27;45442;-66
2023/04/16 01:30:50;;;;;;;;;20.67;19.33;;;;;9.16;75.83;102134.16;5119055;27;45309;-66
2023/04/16 01:33:17;;;;;;;;;23.67;18.67;;;;;9.30;75.80;102162.28;5117966;27;45410;-67
2023/04/16 01:35:42;;;;;;;;;25.00;20.33;;;;;9.27;75.91;102155.25;5119221;27;45273;-66
2023/04/16 01:38:09;;;;;;;;;21.67;18.00;;;;;9.32;76.01;102161.41;5119139;27;45228;-66
2023/04/16 01:40:35;;;;;;;;;22.00;18.33;;;;;9.30;75.83;102160.53;5117390;27;46377;-67
2023/04/16 01:43:01;;;;;;;;;21.00;16.67;;;;;9.37;75.42;102162.31;5138431;27;45313;-66
2023/04/16 01:45:26;;;;;;;;;20.67;17.00;;;;;9.38;75.76;102168.44;5139426;27;45375;-67
2023/04/16 01:47:52;;;;;;;;;19.67;17.00;;;;;9.39;74.98;102160.56;5121372;27;45428;-67
2023/04/16 01:50:19;;;;;;;;;19.33;15.67;;;;;9.39;75.62;102159.69;5139340;27;47488;-67
2023/04/16 01:52:45;;;;;;;;;22.00;19.67;;;;;9.30;75.72;102146.50;5136609;27;45390;-66
2023/04/16 01:55:11;;;;;;;;;20.00;18.00;;;;;9.30;75.61;102149.13;5138472;27;45410;-66
2023/04/16 01:57:36;;;;;;;;;20.33;19.67;;;;;9.28;74.87;102148.22;5120630;27;45501;-67
2023/04/16 02:00:02;;;;;;;;;23.67;20.00;;;;;9.05;75.36;102113.09;5136684;27;45528;-67
2023/04/16 02:02:29;;;;;;;;;21.33;19.67;;;;;9.26;75.67;102150.84;5139206;27;45595;-67
2023/04/16 02:04:58;;;;;;;;;18.00;18.00;;;;;9.32;75.06;102161.41;5137777;27;45544;-67
2023/04/16 02:07:24;;;;;;;;;23.33;17.33;;;;;9.30;74.83;102155.25;5136064;27;45295;-67
2023/04/16 02:09:50;;;;;;;;;21.67;18.00;;;;;9.24;75.28;102142.09;5137804;27;46205;-67
2023/04/16 02:12:15;;;;;;;;;20.33;16.00;;;;;9.26;74.91;102150.00;5138569;27;45483;-67
2023/04/16 02:14:40;;;;;;;;;22.00;17.33;;;;;9.27;74.97;102147.38;5136457;27;45518;-67
2023/04/16 02:17:06;;;;;;;;;20.67;18.33;;;;;9.30;75.32;102160.53;5136933;27;45255;-67
2023/04/16 02:19:31;;;;;;;;;19.33;16.00;;;;;9.16;75.18;102130.66;5138870;27;45292;-66
2023/04/16 02:21:56;;;;;;;;;15.33;14.00;;;;;9.30;75.16;102155.25;5139105;27;45365;-67
2023/04/16 02:24:22;;;;;;;;;17.00;14.00;;;;;9.34;74.34;102162.28;5136790;27;45426;-67
2023/04/16 02:26:47;;;;;;;;;17.00;15.33;;;;;9.35;74.37;102150.91;5137555;27;45421;-66
2023/04/16 02:29:12;;;;;;;;;20.33;17.67;;;;;9.31;74.54;102142.97;5137724;27;46607;-65
2023/04/16 02:31:38;;;;;;;;;24.00;17.00;;;;;9.28;74.18;102141.25;5138841;27;45576;-66
2023/04/16 02:34:04;;;;;;;;;18.33;18.00;;;;;9.37;74.07;102161.44;5138948;27;45382;-66
2023/04/16 02:36:30;;;;;;;;;16.67;15.67;;;;;9.18;74.28;102123.69;5120381;27;45443;-66
2023/04/16 02:38:56;;;;;;;;;19.67;15.00;;;;;9.08;74.31;102109.59;5136661;27;45478;-66
2023/04/16 02:41:22;;;;;;;;;19.33;14.67;;;;;9.37;74.12;102156.19;5137467;27;45310;-66
2023/04/16 02:43:47;;;;;;;;;18.33;17.00;;;;;9.31;74.17;102142.97;5135898;27;45465;-67
2023/04/16 02:46:13;;;;;;;;;13.67;13.00;;;;;9.36;73.84;102157.91;5141298;27;45347;-67
2023/04/16 02:48:38;;;;;;;;;21.33;15.00;;;;;9.36;73.67;102160.53;5139711;27;45354;-67
2023/04/16 02:51:04;;;;;;;;;25.67;23.67;;;;;9.35;73.30;102161.44;5139276;27;45553;-66
2023/04/16 02:53:29;;;;;;;;;17.00;15.33;;;;;9.28;74.06;102148.22;5142396;27;45291;-67
2023/04/16 02:55:55;;;;;;;;;17.00;13.33;;;;;9.27;73.56;102155.25;5142387;27;45479;-67
2023/04/16 02:58:22;;;;;;;;;19.33;14.33;;;;;9.32;73.88;102157.91;5140394;27;46400;-67
2023/04/16 03:00:48;;;;;;;;;23.00;17.00;;;;;9.19;73.85;102147.34;5140642;27;45477;-67
2023/04/16 03:03:13;;;;;;;;;20.00;15.33;;;;;9.26;74.02;102163.13;5136877;27;45624;-67
2023/04/16 03:05:39;;;;;;;;;18.00;12.33;;;;;9.18;74.41;102156.06;5121754;27;45375;-67
2023/04/16 03:08:05;;;;;;;;;16.33;13.00;;;;;9.22;74.41;102157.84;5121611;27;46166;-67
2023/04/16 03:10:31;;;;;;;;;14.00;12.67;;;;;9.21;74.08;102149.97;5120627;27;45432;-67
2023/04/16 03:12:56;;;;;;;;;15.33;15.33;;;;;9.23;74.32;102158.72;5121337;27;45386;-67
2023/04/16 03:15:21;;;;;;;;;15.67;14.33;;;;;9.16;74.59;102154.31;5121398;27;45569;-67
2023/04/16 03:17:47;;;;;;;;;15.00;14.33;;;;;9.24;73.96;102169.25;5124634;27;46382;-67
2023/04/16 03:20:13;;;;;;;;;16.00;12.67;;;;;9.13;74.35;102151.66;5142137;27;45334;-67
2023/04/16 03:22:39;;;;;;;;;16.67;14.67;;;;;9.23;74.63;102174.50;5140019;27;45407;-67
2023/04/16 03:25:05;;;;;;;;;19.33;15.67;;;;;9.18;74.43;102166.59;5136671;27;45550;-66
2023/04/16 03:27:31;;;;;;;;;15.33;15.00;;;;;9.09;74.56;102160.38;5139051;27;46346;-66
2023/04/16 03:29:57;;;;;;;;;15.00;13.00;;;;;9.15;74.50;102170.94;5140663;27;45485;-67
2023/04/16 03:32:22;;;;;;;;;12.33;12.33;;;;;9.16;74.44;102168.31;5138501;27;45423;-67
2023/04/16 03:34:47;;;;;;;;;16.67;14.00;;;;;9.07;74.59;102156.00;5140966;27;45278;-67
2023/04/16 03:37:13;;;;;;;;;16.67;11.33;;;;;9.15;74.80;102169.19;5140832;27;45311;-67
2023/04/16 03:39:38;;;;;;;;;19.33;16.33;;;;;9.10;74.81;102157.78;5141002;27;45422;-66
2023/04/16 03:42:03;;;;;;;;;19.67;16.00;;;;;9.06;74.49;102154.25;5140681;27;45387;-67
2023/04/16 03:44:29;;;;;;;;;13.00;12.67;;;;;9.02;74.27;102148.97;5140715;27;45472;-67
2023/04/16 03:46:54;;;;;;;;;20.00;15.00;;;;;8.81;74.40;102118.19;5140483;27;45726;-67
2023/04/16 03:49:20;;;;;;;;;16.33;14.33;;;;;8.93;75.08;102146.28;5140787;27;45600;-67
2023/04/16 03:51:45;;;;;;;;;14.00;14.00;;;;;8.94;75.06;102145.41;5140805;27;45464;-68
2023/04/16 03:54:11;;;;;;;;;12.00;10.33;;;;;8.91;75.31;102146.25;5140802;27;45513;-67
2023/04/16 03:56:36;;;;;;;;;16.67;13.67;;;;;8.93;75.47;102151.53;5139614;27;46256;-68
2023/04/16 03:59:02;;;;;;;;;13.33;13.33;;;;;8.95;75.29;102170.81;5139947;27;45329;-68
2023/04/16 04:01:27;;;;;;;;;18.33;15.00;;;;;8.87;74.83;102163.78;5139217;27;45378;-67
2023/04/16 04:03:52;;;;;;;;;19.67;14.00;;;;;8.90;75.30;102168.13;5140266;27;45584;-68
2023/04/16 04:06:18;;;;;;;;;19.33;13.33;;;;;8.86;75.61;102161.13;5140084;27;45897;-67
2023/04/16 04:08:43;;;;;;;;;15.33;13.00;;;;;8.84;75.23;102160.22;5137187;27;45441;-67
2023/04/16 04:11:08;;;;;;;;;15.33;14.67;;;;;8.93;75.29;102164.66;5139204;27;45303;-68
2023/04/16 04:13:34;;;;;;;;;15.33;14.67;;;;;8.87;75.15;102166.41;5140697;27;45496;-67
2023/04/16 04:15:59;;;;;;;;;15.00;15.00;;;;;8.88;75.38;102172.50;5140904;27;45382;-67
2023/04/16 04:18:25;;;;;;;;;20.67;14.00;;;;;8.73;75.34;102149.66;5140937;27;45564;-67
2023/04/16 04:20:51;;;;;;;;;15.00;13.00;;;;;8.72;75.44;102153.13;5141044;27;45375;-67
2023/04/16 04:23:16;;;;;;;;;14.67;12.67;;;;;8.77;75.73;102169.81;5140622;27;45477;-67
2023/04/16 04:25:43;;;;;;;;;12.67;10.67;;;;;8.82;75.75;102165.47;5140912;27;45460;-67
2023/04/16 04:28:08;;;;;;;;;14.33;12.67;;;;;8.75;75.08;102160.16;5140328;27;45454;-67
2023/04/16 04:30:34;;;;;;;;;14.67;12.33;;;;;8.79;75.36;102172.47;5140798;27;45447;-67
2023/04/16 04:33:00;;;;;;;;;16.33;14.00;;;;;8.74;75.81;102166.28;5139709;27;45541;-67
2023/04/16 04:35:25;;;;;;;;;19.67;15.33;;;;;8.48;75.95;102128.47;5139552;27;46122;-67
2023/04/16 04:37:50;;;;;;;;;19.67;15.00;;;;;8.67;75.68;102163.63;5140100;27;45569;-67
2023/04/16 04:40:16;;;;;;;;;16.00;16.00;;;;;8.60;76.18;102155.69;5140824;27;45338;-67
2023/04/16 04:42:41;;;;;;;;;15.33;13.67;;;;;8.65;75.67;102161.84;5140594;27;45269;-67
2023/04/16 04:45:07;;;;;;;;;13.00;13.00;;;;;8.55;75.89;102158.25;5140133;27;46212;-67
2023/04/16 04:47:33;;;;;;;;;17.00;15.00;;;;;8.65;76.32;102177.59;5137084;27;46144;-67
2023/04/16 04:49:58;;;;;;;;;21.00;15.67;;;;;8.58;76.23;102174.00;5140315;27;45334;-67
2023/04/16 04:52:23;;;;;;;;;15.67;12.67;;;;;8.34;76.77;102133.53;5140853;27;45232;-67
2023/04/16 04:54:49;;;;;;;;;15.67;13.00;;;;;8.58;76.34;102175.78;5140130;27;46239;-67
2023/04/16 04:57:14;;;;;;;;;19.67;15.33;;;;;8.55;76.44;102174.00;5137342;27;45360;-67
2023/04/16 04:59:40;;;;;;;;;18.67;15.67;;;;;8.58;76.54;102183.66;5139936;27;45553;-67
2023/04/16 05:02:05;;;;;;;;;16.33;14.00;;;;;8.58;76.36;102183.66;5139946;27;45465;-67
2023/04/16 05:04:30;;;;;;;;;12.33;11.67;;;;;8.54;76.16;102177.50;5138996;27;46181;-67
2023/04/16 05:06:56;;;;;;;;;22.67;15.00;;;;;8.59;76.73;102180.16;5139714;27;45503;-67
2023/04/16 05:09:21;;;;;;;;;21.00;19.00;;;;;8.58;76.97;102184.53;5139354;27;45391;-67
2023/04/16 05:11:47;;;;;;;;;20.00;15.33;;;;;8.63;77.02;102190.72;5137958;27;45511;-67
2023/04/16 05:14:12;;;;;;;;;15.33;11.00;;;;;8.54;76.54;102172.25;5130395;27;46301;-67
2023/04/16 05:16:37;;;;;;;;;27.33;22.33;;;;;8.68;76.95;102193.38;5127715;27;45358;-67
2023/04/16 05:19:03;;;;;;;;;20.00;17.33;;;;;8.81;76.57;102191.72;5139111;27;45422;-67
2023/04/16 05:21:29;;;;;;;;;21.33;15.00;;;;;8.84;76.21;102171.63;5139766;27;45752;-67
2023/04/16 05:23:55;;;;;;;;;17.67;14.00;;;;;9.15;74.93;102190.22;5138972;27;46238;-67
2023/04/16 05:26:21;;;;;;;;;16.67;15.00;;;;;9.32;74.28;102189.44;5139293;27;45393;-67
2023/04/16 05:28:47;;;;;;;;;15.00;12.67;;;;;9.30;73.83;102196.44;5139632;27;45501;-67
2023/04/16 05:31:12;;;;;;;;;18.67;14.00;;;;;9.28;73.87;102199.06;5139814;27;45395;-67
2023/04/16 05:33:37;;;;;;;;;15.00;14.00;;;;;9.13;74.16;102186.69;5139742;27;46722;-67
2023/04/16 05:36:03;;;;;;;;;17.33;12.67;;;;;9.22;74.24;102197.28;5137322;27;45507;-66
2023/04/16 05:38:28;;;;;;;;;14.00;12.00;;;;;9.17;73.92;102192.88;5138977;27;45657;-67
2023/04/16 05:40:54;;;;;;;;;21.00;15.33;;;;;9.16;74.17;102191.09;5139103;27;45419;-67
2023/04/16 05:43:20;;;;;;;;;11.33;11.33;;;;;9.23;73.74;102198.16;5139260;27;46443;-67
2023/04/16 05:45:45;;;;;;;;;15.00;11.33;;;;;9.09;74.16;102168.28;5139452;27;45299;-67
2023/04/16 05:48:11;;;;;;;;;18.67;17.67;;;;;9.53;73.47;102207.97;5138320;27;45291;-67
2023/04/16 05:50:36;;;;;;;;;12.00;11.00;;;;;9.56;73.13;102204.47;5139906;27;45428;-67
2023/04/16 05:53:05;;;;;;;;;15.67;11.67;;;;;9.63;73.02;102211.53;5139447;27;46453;-67
2023/04/16 05:55:31;;;;;;;;;14.00;12.00;;;;;9.63;72.70;102214.16;5138367;27;45417;-67
2023/04/16 05:57:56;;;;;;;;;14.67;10.67;;;;;9.49;72.49;102189.53;5139213;27;46454;-68
2023/04/16 06:00:21;;;;;;;;;11.67;11.33;;;;;9.64;72.57;102212.38;5139355;27;45275;-67
2023/04/16 06:02:47;;;;;;;;;12.00;9.00;;;;;9.62;72.40;102206.25;5139129;27;45668;-67
2023/04/16 06:05:12;;;;;;;;;12.00;9.67;;;;;9.67;72.53;102207.16;5137913;27;45312;-67
2023/04/16 06:07:38;;;;;;;;;15.67;12.33;;;;;9.74;72.23;102217.72;5121235;27;45410;-67
2023/04/16 06:10:03;;;;;;;;;12.00;12.00;;;;;9.78;71.95;102209.84;5118853;27;45700;-67
2023/04/16 06:12:29;;;;;;;;;16.33;12.00;;;;;9.84;71.91;102208.09;5118358;27;47730;-67
2023/04/16 06:14:55;;;;;;;;;12.00;11.67;;;;;9.93;71.26;102204.63;5118167;27;45520;-67
2023/04/16 06:17:20;;;;;;;;;11.00;8.00;;;;;10.10;70.91;102213.44;5119054;27;45367;-67
2023/04/16 06:19:45;;;;;;;;;14.67;8.67;;;;;10.38;70.01;102224.09;5139153;27;45435;-67
2023/04/16 06:22:11;;;;;;;;;6.00;6.00;;;;;10.89;68.69;102217.97;5138584;27;46126;-67
2023/04/16 06:24:36;;;;;;;;;10.33;9.33;;;;;11.37;66.24;102199.44;5138882;27;45708;-66
2023/04/16 06:27:01;;;;;;;;;11.33;9.67;;;;;12.51;63.03;102215.63;5139134;27;45573;-67
2023/04/16 06:29:27;;;;;;;;;7.33;7.00;;;;;12.99;61.26;102215.25;5138969;27;45503;-67
2023/04/16 06:31:53;;;;;;;;;9.67;8.00;;;;;13.55;59.53;102218.25;5138797;27;45411;-67
2023/04/16 06:34:18;;;;;;;;;11.33;9.00;;;;;14.68;56.77;102210.53;5138941;27;45453;-67
2023/04/16 06:36:44;;;;;;;;;9.67;7.00;;;;;16.00;53.11;102218.69;5138937;27;45885;-67
2023/04/16 06:39:09;;;;;;;;;9.67;9.00;;;;;15.17;52.60;102211.47;5139532;27;45425;-67
2023/04/16 06:41:35;;;;;;;;;9.00;7.33;;;;;14.51;54.52;102210.75;5138377;27;46112;-67
2023/04/16 06:44:00;;;;;;;;;8.00;8.00;;;;;14.16;55.83;102220.13;5138591;27;45401;-67
2023/04/16 06:46:26;;;;;;;;;9.33;8.33;;;;;13.71;56.48;102226.88;5139044;27;45421;-67
2023/04/16 06:48:51;;;;;;;;;9.00;8.00;;;;;13.34;58.32;102215.81;5138962;27;45439;-67
2023/04/16 06:51:16;;;;;;;;;7.33;7.00;;;;;13.17;58.42;102232.72;5138821;27;45445;-67
2023/04/16 06:53:42;;;;;;;;;8.00;7.00;;;;;12.92;59.71;102231.19;5137859;27;45302;-67
2023/04/16 06:56:07;;;;;;;;;7.33;7.33;;;;;12.64;59.64;102210.28;5138611;27;45431;-67
2023/04/16 06:58:32;;;;;;;;;13.67;10.67;;;;;12.59;59.79;102210.31;5138857;27;45254;-65
2023/04/16 07:00:58;;;;;;;;;10.00;8.00;;;;;12.78;60.19;102210.16;5138343;27;47338;-67
2023/04/16 07:03:23;;;;;;;;;6.67;5.33;;;;;13.26;59.10;102242.34;5138862;27;45311;-67
2023/04/16 07:05:49;;;;;;;;;9.00;7.67;;;;;13.32;58.47;102239.63;5138307;27;45445;-67
2023/04/16 07:08:14;;;;;;;;;8.33;7.00;;;;;13.22;58.80;102236.19;5139160;27;45280;-67
2023/04/16 07:10:39;;;;;;;;;6.00;5.33;;;;;13.31;58.22;102240.50;5138367;27;46479;-67
2023/04/16 07:13:05;;;;;;;;;8.00;7.00;;;;;13.01;58.36;102224.06;5138398;27;45442;-67
2023/04/16 07:15:30;;;;;;;;;7.00;6.67;;;;;13.06;58.54;102242.53;5138298;27;45399;-67
2023/04/16 07:17:55;;;;;;;;;5.00;5.00;;;;;13.00;58.77;102242.59;5138634;27;45166;-67
2023/04/16 07:20:21;;;;;;;;;5.00;5.00;;;;;13.16;58.64;102238.91;5138238;27;46595;-67
2023/04/16 07:22:46;;;;;;;;;9.00;8.00;;;;;13.64;57.84;102233.16;5138354;27;45338;-67
2023/04/16 07:25:12;;;;;;;;;11.00;9.67;;;;;14.06;56.22;102237.94;5137073;27;45480;-67
2023/04/16 07:27:37;;;;;;;;;9.33;7.00;;;;;14.21;55.57;102236.84;5138620;27;45476;-67
2023/04/16 07:30:03;;;;;;;;;9.00;7.33;;;;;14.51;55.78;102232.88;5137230;27;45310;-67
2023/04/16 07:32:28;;;;;;;;;9.00;6.67;;;;;14.82;54.31;102242.16;5140040;27;45446;-67
2023/04/16 07:34:54;;;;;;;;;5.67;5.67;;;;;14.87;54.49;102235.88;5142044;27;45181;-67
2023/04/16 07:37:19;;;;;;;;;6.33;5.33;;;;;14.75;53.51;102250.19;5140909;27;45410;-67
2023/04/16 07:39:46;;;;;;;;;8.00;6.33;;;;;14.95;53.33;102249.84;5140944;27;46565;-67
2023/04/16 07:42:11;;;;;;;;;6.00;5.33;;;;;15.83;52.84;102240.28;5141432;27;45480;-67
2023/04/16 07:44:38;;;;;;;;;23.67;20.67;;;;;17.43;50.60;102245.38;5141482;27;45292;-67
2023/04/16 07:47:03;;;;;;;;;10.00;10.00;;;;;18.09;46.55;102243.50;5141701;27;45409;-67
2023/04/16 07:49:28;;;;;;;;;12.00;8.33;;;;;17.85;47.15;102223.75;5141375;27;45513;-67
2023/04/16 07:51:54;;;;;;;;;7.00;7.00;;;;;17.61;48.44;102241.31;5140946;27;45516;-67
2023/04/16 07:54:19;;;;;;;;;6.33;6.00;;;;;17.47;48.57;102248.81;5140521;27;46016;-67
2023/04/16 07:56:45;;;;;;;;;7.67;6.00;;;;;16.96;46.90;102231.53;5141350;27;45498;-67
2023/04/16 07:59:10;;;;;;;;;4.25;3.00;;;;;16.84;47.20;102254.81;5141508;27;46206;-67
2023/04/16 08:01:35;;;;;;;;;7.33;6.33;;;;;16.87;48.37;102259.22;5141146;27;45540;-68
2023/04/16 08:04:01;;;;;;;;;6.00;3.25;;;;;16.90;48.18;102263.63;5141514;27;45340;-68
2023/04/16 08:06:26;;;;;;;;;4.75;3.00;;;;;16.62;47.38;102256.28;5141457;27;45315;-67
2023/04/16 08:08:52;;;;;;;;;6.33;3.67;;;;;16.45;47.61;102270.81;5140930;27;47023;-67
2023/04/16 08:11:17;;;;;;;;;4.00;4.00;;;;;16.25;47.08;102234.09;5141173;27;45210;-67
2023/04/16 08:13:42;;;;;;;;;10.00;9.00;;;;;16.67;46.84;102257.03;5140571;27;45482;-68
2023/04/16 08:16:08;;;;;;;;;4.75;3.00;;;;;17.77;46.40;102267.53;5141015;27;45355;-67
2023/04/16 08:18:33;;;;;;;;;4.00;3.00;;;;;18.63;44.33;102267.59;5140676;27;45669;-68
2023/04/16 08:20:58;;;;;;;;;9.67;7.67;;;;;18.60;44.23;102262.38;5120567;27;45414;-67
2023/04/16 08:23:24;;;;;;;;;45.00;37.50;;;;;18.62;42.86;102271.22;5138053;27;45233;-68
2023/04/16 08:25:49;;;;;;;;;5.00;5.00;;;;;18.96;44.65;102280.78;5141083;27;45793;-68
2023/04/16 08:28:14;;;;;;;;;7.00;7.00;;;;;19.36;43.84;102283.88;5139454;27;46625;-68
2023/04/16 08:30:40;;;;;;;;;12.67;10.33;;;;;19.16;43.57;102273.94;5139124;27;45441;-68
2023/04/16 08:33:05;;;;;;;;;7.00;7.00;;;;;18.98;44.61;102278.06;5140080;27;45834;-67
2023/04/16 08:35:31;;;;;;;;;8.67;6.33;;;;;18.86;44.17;102280.22;5140610;27;45433;-68
2023/04/16 08:37:57;;;;;;;;;8.00;8.00;;;;;18.74;42.83;102273.47;5140504;27;45325;-68
2023/04/16 08:40:25;;;;;;;;;5.33;5.00;;;;;18.53;43.47;102283.03;5139430;27;45523;-68
2023/04/16 08:42:54;;;;;;;;;4.00;4.00;;;;;18.34;43.52;102276.53;5139622;27;45348;-67
2023/04/16 08:45:20;;;;;;;;;9.33;6.33;;;;;18.01;43.19;102282.84;5118581;27;45477;-67
2023/04/16 08:47:50;;;;;;;;;5.25;4.25;;;;;18.08;45.12;102289.72;5119152;27;45450;-67
2023/04/16 08:50:21;;;;;;;;;14.67;13.33;;;;;17.91;43.95;102287.56;5100619;27;45332;-67
2023/04/16 08:52:51;;;;;;;;;5.00;5.00;;;;;18.00;44.63;102291.75;5099242;27;45451;-67
2023/04/16 08:55:31;;;;;;;;;12.00;8.33;;;;;18.98;43.61;102289.66;5098739;27;45688;-67
2023/04/16 08:58:02;;;;;;;;;5.00;5.00;;;;;19.57;42.51;102292.97;5098645;27;45692;-67
2023/04/16 09:00:30;;;;;;;;;7.00;7.00;;;;;19.80;41.36;102276.97;5079976;27;46413;-67
2023/04/16 09:02:55;;;;;;;;;4.00;4.00;;;;;19.69;40.80;102288.97;5113600;27;45520;-68
2023/04/16 09:05:24;;;;;;;;;4.67;4.67;;;;;19.65;40.77;102288.22;5119226;27;45305;-68
2023/04/16 09:07:51;;;;;;;;;3.00;3.00;;;;;19.60;40.27;102292.84;5119241;27;46500;-68
2023/04/16 09:10:17;;;;;;;;;5.50;4.00;;;;;20.35;39.25;102279.34;5118804;27;45457;-68
2023/04/16 09:12:43;;;;;;;;;3.25;3.25;;;;;21.40;37.16;102255.38;5118799;27;45523;-68
2023/04/16 09:15:10;;;;;;;;;5.00;3.67;;;;;21.82;36.41;102285.75;5119457;27;45418;-68
2023/04/16 09:17:36;;;;;;;;;6.67;2.33;;;;;21.54;36.33;102273.59;5117504;27;46373;-68
2023/04/16 09:20:04;;;;;;;;;3.67;3.67;;;;;21.38;36.83;102286.75;5118983;27;45487;-68
2023/04/16 09:22:30;;;;;;;;;4.00;4.00;;;;;21.01;37.23;102273.16;5118721;27;45340;-68
2023/04/16 09:24:55;;;;;;;;;5.00;5.00;;;;;21.32;38.39;102287.00;5118071;27;45424;-68
2023/04/16 09:27:21;;;;;;;;;9.33;9.33;;;;;21.55;37.32;102277.97;5119056;27;46410;-68
2023/04/16 09:29:47;;;;;;;;;37.67;34.33;;;;;21.41;34.51;102273.22;5118006;27;45333;-68
2023/04/16 09:32:12;;;;;;;;;6.67;5.00;;;;;21.05;36.07;102263.16;5118776;27;45264;-68
2023/04/16 09:34:58;;;;;;;;;4.33;4.00;;;;;21.27;37.84;102278.31;5114322;27;45383;-68
2023/04/16 09:37:28;;;;;;;;;5.00;2.00;;;;;22.09;35.22;102271.03;5117854;27;45659;-71
2023/04/16 09:40:02;;;;;;;;;6.50;3.00;;;;;24.35;34.36;102272.94;5099388;27;45540;-69
2023/04/16 09:42:34;;;;;;;;;2.00;2.00;;;;;26.15;32.45;102254.97;5112668;27;45574;-69
2023/04/16 09:44:59;;;;;;;;;2.00;2.00;;;;;27.76;29.11;102278.31;5132884;27;45504;-68
2023/04/16 09:47:37;;;;;;;;;3.33;3.33;;;;;29.21;26.93;102280.28;5139023;27;45440;-70
2023/04/16 09:50:02;;;;;;;;;2.00;2.00;;;;;30.18;26.36;102290.75;5139116;27;45708;-70
2023/04/16 09:52:27;;;;;;;;;1.67;1.33;;;;;30.86;26.08;102283.25;5139720;27;45299;-70
2023/04/16 09:54:53;;;;;;;;;5.00;5.00;;;;;31.39;25.11;102276.06;5125936;27;45343;-69
2023/04/16 09:57:23;;;;;;;;;1.33;1.33;;;;;32.04;23.22;102286.69;5118662;27;46543;-69
2023/04/16 10:00:02;;;;;;;;;3.67;3.67;;;;;33.07;25.17;102277.22;5132656;27;45367;-69
2023/04/16 10:02:28;;;;;;;;;3.33;2.00;;;;;33.80;21.57;102271.13;5139415;27;45379;-69
2023/04/16 10:04:56;;;;;;;;;3.67;2.67;;;;;34.11;19.42;102281.75;5139519;27;45405;-69
2023/04/16 10:07:22;;;;;;;;;4.00;4.00;;;;;34.48;22.68;102275.34;5139510;27;46590;-69
2023/04/16 10:09:48;;;;;;;;;6.00;5.33;;;;;34.53;20.21;102277.59;5139406;27;45264;-68
2023/04/16 10:12:14;;;;;;;;;3.00;1.00;;;;;34.43;19.28;102282.28;5139132;27;45220;-68
2023/04/16 10:14:40;;;;;;;;;2.00;2.00;;;;;34.56;18.85;102284.66;5139527;27;45308;-69
2023/04/16 10:17:06;;;;;;;;;5.33;5.00;;;;;34.82;18.49;102291.06;5138906;27;47310;-69
2023/04/16 10:19:32;;;;;;;;;0.00;0.00;;;;;34.93;20.47;102283.63;5139310;27;45416;-69
2023/04/16 10:21:57;;;;;;;;;1.67;1.00;;;;;34.98;18.86;102301.28;5139266;27;45403;-69
2023/04/16 10:24:24;;;;;;;;;0.00;0.00;;;;;34.78;19.19;102269.63;5139161;27;45404;-68
2023/04/16 10:26:51;;;;;;;;;0.33;0.33;;;;;34.66;19.10;102293.63;5139287;27;45653;-68
2023/04/16 10:29:18;;;;;;;;;22.00;19.67;;;;;34.33;20.72;102260.47;5138488;27;45337;-68
2023/04/16 10:31:45;;;;;;;;;3.00;1.00;;;;;34.14;19.77;102277.84;5138844;27;45413;-68
2023/04/16 10:34:11;;;;;;;;;4.67;4.67;;;;;34.00;19.96;102284.72;5139089;27;45361;-68
2023/04/16 10:36:37;;;;;;;;;2.33;0.67;;;;;33.66;20.04;102291.59;5138049;27;46305;-69
2023/04/16 10:39:03;;;;;;;;;2.00;2.00;;;;;33.25;19.34;102271.03;5139021;27;45476;-68
2023/04/16 10:41:31;;;;;;;;;0.67;0.67;;;;;32.84;20.62;102292.13;5131386;27;45663;-68
2023/04/16 10:44:10;;;;;;;;;1.33;0.33;;;;;32.28;20.81;102284.50;5118562;27;45458;-68
2023/04/16 10:46:40;;;;;;;;;1.33;1.33;;;;;31.45;19.69;102291.84;5126859;27;46551;-68
2023/04/16 10:49:22;;;;;;;;;1.00;1.00;;;;;30.47;20.97;102276.59;5137966;27;45404;-68
2023/04/16 10:51:58;;;;;;;;;5.00;5.00;;;;;29.63;21.71;102272.47;5136168;27;45433;-68
2023/04/16 10:54:26;;;;;;;;;3.00;3.00;;;;;28.72;21.95;102256.94;5137421;27;45299;-68
2023/04/16 10:56:54;;;;;;;;;2.00;2.00;;;;;27.95;22.86;102280.53;5137681;27;46841;-68
2023/04/16 10:59:21;;;;;;;;;2.33;2.00;;;;;26.99;23.35;102266.56;5137233;27;45479;-68
2023/04/16 11:01:49;;;;;;;;;1.00;1.00;;;;;26.40;24.14;102270.44;5136720;27;45334;-68
2023/04/16 11:04:20;;;;;;;;;3.00;3.00;;;;;25.77;24.41;102278.03;5137748;27;45687;-68
2023/04/16 11:07:04;;;;;;;;;2.67;2.67;;;;;25.04;25.02;102276.16;5123326;27;45462;-68
2023/04/16 11:09:58;;;;;;;;;2.67;2.67;;;;;24.31;25.71;102277.63;5142014;27;45422;-68
2023/04/16 11:12:41;;;;;;;;;1.00;1.00;;;;;23.59;25.86;102266.28;5140283;27;45480;-68
2023/04/16 11:15:14;;;;;;;;;1.00;1.00;;;;;22.90;26.55;102264.47;5141700;27;45237;-67